Aviation Digital Data Service (ADDS)

Output produced by TAFs form (1425 UTC 20 April 2014)
found at http://www.aviationweather.gov/adds/tafs/
 
KALB 201133Z 2012/2112 VRB03KT P6SM FEW250 
     FM201700 17009KT P6SM SCT250 
     FM202300 17007KT P6SM BKN200